createdAt,value
2023-01-01T00:00:25.277Z,7.36
2023-01-01T00:02:53.521Z,7.37
2023-01-01T00:05:23.137Z,7.33
2023-01-01T00:07:51.434Z,7.25
2023-01-01T00:10:31.750Z,7.37
2023-01-01T00:13:01.063Z,7.36
2023-01-01T00:15:29.945Z,7.37
2023-01-01T00:17:58.743Z,7.33
2023-01-01T00:20:34.748Z,7.37
2023-01-01T00:23:03.555Z,7.30
2023-01-01T00:25:32.631Z,7.45
2023-01-01T00:28:00.991Z,7.48
2023-01-01T00:30:29.336Z,7.48
2023-01-01T00:32:57.617Z,7.47
2023-01-01T00:35:28.562Z,7.39
2023-01-01T00:37:56.978Z,7.45
2023-01-01T00:40:25.280Z,7.49
2023-01-01T00:42:53.589Z,7.53
2023-01-01T00:45:23.170Z,7.52
2023-01-01T00:47:52.393Z,7.50
2023-01-01T00:50:20.829Z,7.43
2023-01-01T00:52:50.574Z,7.34
2023-01-01T00:55:19.324Z,7.36
2023-01-01T00:57:47.828Z,7.37
2023-01-01T01:00:17.129Z,7.36
2023-01-01T01:02:45.729Z,7.37
2023-01-01T01:05:14.071Z,7.41
2023-01-01T01:07:42.871Z,7.44
2023-01-01T01:10:13.371Z,7.48
2023-01-01T01:12:41.931Z,7.54
2023-01-01T01:15:11.939Z,7.56
2023-01-01T01:17:40.383Z,7.60
2023-01-01T01:20:10.501Z,7.65
2023-01-01T01:22:38.792Z,7.64
2023-01-01T01:25:11.678Z,7.50
2023-01-01T01:27:42.001Z,7.51
2023-01-01T01:30:10.878Z,7.60
2023-01-01T01:32:39.220Z,7.61
2023-01-01T01:35:08.106Z,7.58
2023-01-01T01:37:36.367Z,7.64
2023-01-01T01:40:05.260Z,7.72
2023-01-01T01:42:33.416Z,7.66
2023-01-01T01:45:07.155Z,7.66
2023-01-01T01:47:39.524Z,7.67
2023-01-01T01:50:12.754Z,7.72
2023-01-01T01:52:46.223Z,7.73
2023-01-01T01:55:15.775Z,7.60
2023-01-01T01:57:44.382Z,7.66
2023-01-01T02:00:15.840Z,7.64
2023-01-01T02:02:52.801Z,7.59
2023-01-01T02:05:23.149Z,7.58
2023-01-01T02:07:52.985Z,7.57
2023-01-01T02:10:21.516Z,7.63
2023-01-01T02:12:49.964Z,7.74
2023-01-01T02:15:20.078Z,7.74
2023-01-01T02:17:58.473Z,7.82
2023-01-01T02:20:35.801Z,7.83
2023-01-01T02:23:30.099Z,7.84
2023-01-01T02:26:43.709Z,7.72
2023-01-01T02:29:24.509Z,7.62
2023-01-01T02:31:59.958Z,7.65
2023-01-01T02:34:33.411Z,7.56
2023-01-01T02:37:05.085Z,7.72
2023-01-01T02:39:37.221Z,7.67
2023-01-01T02:42:08.531Z,7.67
2023-01-01T02:44:42.930Z,7.65
2023-01-01T02:47:13.004Z,7.62
2023-01-01T02:49:50.870Z,7.63
2023-01-01T02:52:38.065Z,7.59
2023-01-01T02:55:15.468Z,7.64
2023-01-01T02:57:50.396Z,7.71
2023-01-01T03:00:24.689Z,7.69
2023-01-01T03:03:04.216Z,7.66
2023-01-01T03:05:59.493Z,7.67
2023-01-01T03:08:35.042Z,7.65
2023-01-01T03:11:07.679Z,7.59
2023-01-01T03:13:44.684Z,7.58
2023-01-01T03:16:20.118Z,7.65
2023-01-01T03:19:11.096Z,7.70
2023-01-01T03:21:44.936Z,7.74
2023-01-01T03:24:19.928Z,7.66
2023-01-01T03:26:52.848Z,7.61
2023-01-01T03:29:23.584Z,7.60
2023-01-01T03:31:57.710Z,7.58
2023-01-01T03:34:32.993Z,7.53
2023-01-01T03:37:05.588Z,7.54
2023-01-01T03:39:38.206Z,7.51
2023-01-01T03:42:17.044Z,7.52
2023-01-01T03:44:49.242Z,7.53
2023-01-01T03:47:19.693Z,7.52
2023-01-01T03:49:48.341Z,7.52
2023-01-01T03:52:37.912Z,7.48
2023-01-01T03:55:10.386Z,7.39
2023-01-01T03:57:45.744Z,7.50
2023-01-01T04:00:17.990Z,7.51
2023-01-01T04:02:54.154Z,7.48
2023-01-01T04:05:23.065Z,7.51
2023-01-01T04:07:53.129Z,7.49
2023-01-01T04:10:24.132Z,7.46
2023-01-01T04:12:54.820Z,7.47
2023-01-01T04:15:26.474Z,7.39
2023-01-01T04:17:56.663Z,7.37
2023-01-01T04:20:25.820Z,7.39
2023-01-01T04:22:57.018Z,7.36
2023-01-01T04:25:25.439Z,7.30
2023-01-01T04:27:53.639Z,7.29
2023-01-01T04:30:21.950Z,7.20
2023-01-01T04:32:50.546Z,7.29
2023-01-01T04:35:20.154Z,7.31
2023-01-01T04:37:48.401Z,7.33
2023-01-01T04:40:16.918Z,7.37
2023-01-01T04:42:45.199Z,7.36
2023-01-01T04:45:15.643Z,7.35
2023-01-01T04:47:44.660Z,7.35
2023-01-01T04:50:12.932Z,7.33
2023-01-01T04:52:42.546Z,7.31
2023-01-01T04:55:11.335Z,7.36
2023-01-01T04:57:39.516Z,7.30
2023-01-01T05:00:09.177Z,7.25
2023-01-01T05:02:37.608Z,7.23
2023-01-01T05:05:06.467Z,7.20
2023-01-01T05:07:35.066Z,7.22
2023-01-01T05:10:05.146Z,7.19
2023-01-01T05:12:33.417Z,7.22
2023-01-01T05:15:01.589Z,7.21
2023-01-01T05:17:29.872Z,7.23
2023-01-01T05:19:58.470Z,7.21
2023-01-01T05:22:26.837Z,7.15
2023-01-01T05:24:55.258Z,7.08
2023-01-01T05:27:24.865Z,7.06
2023-01-01T05:29:53.088Z,7.04
2023-01-01T05:32:21.450Z,7.00
2023-01-01T05:34:49.862Z,7.03
2023-01-01T05:37:18.265Z,6.96
2023-01-01T05:39:46.815Z,6.95
2023-01-01T05:42:15.684Z,6.93
2023-01-01T05:44:47.685Z,6.89
2023-01-01T05:47:18.724Z,6.88
2023-01-01T05:49:47.346Z,6.86
2023-01-01T05:52:15.740Z,6.86
2023-01-01T05:54:44.017Z,6.91
2023-01-01T05:57:12.274Z,6.98
2023-01-01T05:59:40.428Z,7.03
2023-01-01T06:02:10.195Z,6.94
2023-01-01T06:04:38.479Z,6.92
2023-01-01T06:07:06.823Z,6.88
2023-01-01T06:09:35.122Z,6.89
2023-01-01T06:12:03.522Z,6.94
2023-01-01T06:14:31.606Z,6.97
2023-01-01T06:17:00.169Z,7.00
2023-01-01T06:19:29.862Z,6.98
2023-01-01T06:21:58.132Z,7.01
2023-01-01T06:24:26.462Z,7.02
2023-01-01T06:26:54.675Z,7.00
2023-01-01T06:29:22.899Z,6.90
2023-01-01T06:31:51.365Z,6.89
2023-01-01T06:34:19.783Z,6.96
2023-01-01T06:36:49.902Z,6.95
2023-01-01T06:39:18.475Z,6.93
2023-01-01T06:41:46.854Z,6.95
2023-01-01T06:44:15.011Z,6.94
2023-01-01T06:46:43.304Z,6.89
2023-01-01T06:49:13.239Z,6.83
2023-01-01T06:51:44.068Z,6.79
2023-01-01T06:54:13.823Z,6.76
2023-01-01T06:56:42.169Z,6.77
2023-01-01T06:59:10.334Z,6.74
2023-01-01T07:01:44.546Z,6.65
2023-01-01T07:04:14.676Z,6.67
2023-01-01T07:06:43.138Z,6.53
2023-01-01T07:09:11.502Z,6.62
2023-01-01T07:11:41.049Z,6.66
2023-01-01T07:14:09.335Z,6.67
2023-01-01T07:16:37.383Z,6.69
2023-01-01T07:19:05.491Z,6.69
2023-01-01T07:21:35.763Z,6.73
2023-01-01T07:24:06.544Z,6.76
2023-01-01T07:26:35.168Z,6.79
2023-01-01T07:29:07.958Z,6.78
2023-01-01T07:31:37.376Z,6.78
2023-01-01T07:34:07.882Z,6.80
2023-01-01T07:36:39.000Z,6.77
2023-01-01T07:39:07.661Z,6.78
2023-01-01T07:41:35.863Z,6.75
2023-01-01T07:44:05.460Z,6.72
2023-01-01T07:46:37.061Z,6.62
2023-01-01T07:49:05.720Z,6.66
2023-01-01T07:51:34.047Z,6.64
2023-01-01T07:54:06.521Z,6.63
2023-01-01T07:56:36.546Z,6.64
2023-01-01T07:59:06.569Z,6.62
2023-01-01T08:01:37.435Z,6.58
2023-01-01T08:04:06.462Z,6.62
2023-01-01T08:06:34.603Z,6.59
2023-01-01T08:09:03.098Z,6.58
2023-01-01T08:11:31.528Z,6.53
2023-01-01T08:14:00.794Z,6.52
2023-01-01T08:16:30.683Z,6.43
2023-01-01T08:18:58.993Z,6.51
2023-01-01T08:21:27.106Z,6.52
2023-01-01T08:23:55.366Z,6.47
2023-01-01T08:26:30.662Z,6.39
2023-01-01T08:28:59.653Z,6.44
2023-01-01T08:31:29.623Z,6.41
2023-01-01T08:33:57.833Z,6.42
2023-01-01T08:36:26.432Z,6.40
2023-01-01T08:38:54.640Z,6.38
2023-01-01T08:41:23.242Z,6.36
2023-01-01T08:43:51.760Z,6.33
2023-01-01T08:46:20.005Z,6.32
2023-01-01T08:48:49.727Z,6.33
2023-01-01T08:51:19.907Z,6.31
2023-01-01T08:53:51.338Z,6.35
2023-01-01T08:56:20.549Z,6.33
2023-01-01T08:58:49.220Z,6.33
2023-01-01T09:01:17.871Z,6.32
2023-01-01T09:03:46.261Z,6.31
2023-01-01T09:06:16.721Z,6.29
2023-01-01T09:08:44.993Z,6.31
2023-01-01T09:11:26.379Z,6.29
2023-01-01T09:13:56.568Z,6.35
2023-01-01T09:16:25.058Z,6.43
2023-01-01T09:18:53.374Z,6.41
2023-01-01T09:21:23.127Z,6.34
2023-01-01T09:23:51.399Z,6.38
2023-01-01T09:26:19.618Z,6.34
2023-01-01T09:29:01.538Z,6.28
2023-01-01T09:31:29.912Z,6.43
2023-01-01T09:33:58.155Z,6.47
2023-01-01T09:36:32.194Z,6.44
2023-01-01T09:39:01.098Z,6.46
2023-01-01T09:41:44.466Z,6.43
2023-01-01T09:44:28.741Z,6.52
2023-01-01T09:47:01.821Z,6.58
2023-01-01T09:49:36.600Z,6.62
2023-01-01T09:52:06.924Z,6.60
2023-01-01T09:54:40.853Z,6.57
2023-01-01T09:57:18.181Z,6.58
2023-01-01T10:00:15.607Z,6.56
2023-01-01T10:02:57.888Z,6.64
2023-01-01T10:05:35.735Z,6.65
2023-01-01T10:08:22.963Z,6.67
2023-01-01T10:10:59.030Z,6.69
2023-01-01T10:13:33.906Z,6.60
2023-01-01T10:16:06.212Z,6.57
2023-01-01T10:18:38.534Z,6.65
2023-01-01T10:21:19.416Z,6.58
2023-01-01T10:23:53.980Z,6.51
2023-01-01T10:26:25.774Z,6.55
2023-01-01T10:29:01.962Z,6.54
2023-01-01T10:31:34.946Z,6.59
2023-01-01T10:34:10.130Z,6.62
2023-01-01T10:36:38.692Z,6.66
2023-01-01T10:39:09.122Z,6.52
2023-01-01T10:41:37.450Z,6.53
2023-01-01T10:44:07.456Z,6.48
2023-01-01T10:46:38.493Z,6.43
2023-01-01T10:49:11.201Z,6.43
2023-01-01T10:51:45.063Z,6.47
2023-01-01T10:54:31.848Z,6.43
2023-01-01T10:57:00.932Z,6.43
2023-01-01T10:59:38.923Z,6.42
2023-01-01T11:02:20.909Z,6.30
2023-01-01T11:04:49.945Z,6.38
2023-01-01T11:07:36.925Z,6.39
2023-01-01T11:10:08.923Z,6.30
2023-01-01T11:13:04.302Z,6.17
2023-01-01T11:15:41.811Z,6.06
2023-01-01T11:18:16.460Z,6.11
2023-01-01T11:20:45.572Z,6.16
2023-01-01T11:23:28.371Z,5.91
2023-01-01T11:26:03.614Z,5.86
2023-01-01T11:28:42.469Z,5.90
2023-01-01T11:31:20.159Z,6.00
2023-01-01T11:33:53.750Z,6.00
2023-01-01T11:36:24.133Z,6.04
2023-01-01T11:39:05.530Z,5.93
2023-01-01T11:41:45.025Z,5.91
2023-01-01T11:44:23.378Z,5.94
2023-01-01T11:46:51.832Z,5.88
2023-01-01T11:49:25.452Z,5.75
2023-01-01T11:51:56.986Z,5.73
2023-01-01T11:54:31.426Z,5.69
2023-01-01T11:57:08.729Z,5.58
2023-01-01T11:59:44.390Z,5.44
2023-01-01T12:02:17.171Z,5.39
2023-01-01T12:04:54.200Z,5.43
2023-01-01T12:07:29.609Z,5.56
2023-01-01T12:10:02.797Z,5.56
2023-01-01T12:12:37.077Z,5.40
2023-01-01T12:15:15.515Z,5.37
2023-01-01T12:17:49.060Z,5.17
2023-01-01T12:20:24.060Z,5.26
2023-01-01T12:22:52.694Z,5.48
2023-01-01T12:25:21.706Z,5.40
2023-01-01T12:28:04.837Z,5.17
2023-01-01T12:30:44.735Z,5.05
2023-01-01T12:33:27.773Z,5.03
2023-01-01T12:36:07.523Z,4.91
2023-01-01T12:38:59.161Z,4.84
2023-01-01T12:41:54.564Z,4.94
2023-01-01T12:44:35.027Z,4.90
2023-01-01T12:47:07.902Z,4.86
2023-01-01T12:50:01.762Z,4.83
2023-01-01T12:52:43.059Z,4.95
2023-01-01T12:55:30.883Z,4.91
2023-01-01T12:58:04.575Z,4.91
2023-01-01T13:00:38.596Z,4.89
2023-01-01T13:03:11.910Z,4.91
2023-01-01T13:05:44.552Z,4.94
2023-01-01T13:08:13.543Z,5.01
2023-01-01T13:10:45.849Z,4.95
2023-01-01T13:13:15.569Z,4.96
2023-01-01T13:15:50.845Z,4.93
2023-01-01T13:18:23.946Z,4.97
2023-01-01T13:21:25.738Z,4.94
2023-01-01T13:23:57.657Z,4.99
2023-01-01T13:26:41.898Z,4.85
2023-01-01T13:29:38.872Z,4.94
2023-01-01T13:32:10.368Z,5.01
2023-01-01T13:35:17.351Z,5.02
2023-01-01T13:37:49.475Z,5.00
2023-01-01T13:40:51.615Z,4.88
2023-01-01T13:43:30.291Z,4.92
2023-01-01T13:46:12.432Z,4.93
2023-01-01T13:49:02.161Z,4.77
2023-01-01T13:52:09.538Z,4.74
2023-01-01T13:55:04.470Z,4.76
2023-01-01T13:58:06.633Z,4.74
2023-01-01T14:00:49.902Z,4.72
2023-01-01T14:03:20.252Z,4.74
2023-01-01T14:05:54.442Z,4.97
2023-01-01T14:08:30.991Z,4.88
2023-01-01T14:11:02.183Z,4.93
2023-01-01T14:13:33.109Z,4.91
2023-01-01T14:16:04.635Z,4.85
2023-01-01T14:18:35.749Z,4.85
2023-01-01T14:21:11.357Z,4.91
2023-01-01T14:23:44.293Z,4.92
2023-01-01T14:26:17.737Z,4.90
2023-01-01T14:28:46.887Z,4.87
2023-01-01T14:31:20.095Z,4.69
2023-01-01T14:33:48.836Z,4.76
2023-01-01T14:36:22.598Z,4.73
2023-01-01T14:38:53.714Z,4.71
2023-01-01T14:41:30.616Z,4.62
2023-01-01T14:44:04.271Z,4.69
2023-01-01T14:46:33.401Z,4.68
2023-01-01T14:49:05.022Z,4.70
2023-01-01T14:51:39.467Z,4.67
2023-01-01T14:54:18.221Z,4.56
2023-01-01T14:56:49.545Z,4.61
2023-01-01T14:59:25.380Z,4.63
2023-01-01T15:02:01.870Z,4.63
2023-01-01T15:04:32.565Z,4.71
2023-01-01T15:07:02.831Z,4.78
2023-01-01T15:09:32.834Z,4.71
2023-01-01T15:12:01.967Z,4.75
2023-01-01T15:14:35.836Z,4.67
2023-01-01T15:17:05.774Z,4.66
2023-01-01T15:19:35.752Z,4.74
2023-01-01T15:22:11.462Z,4.58
2023-01-01T15:24:40.839Z,4.66
2023-01-01T15:27:17.912Z,4.73
2023-01-01T15:29:48.572Z,4.84
2023-01-01T15:32:17.165Z,4.82
2023-01-01T15:34:50.923Z,4.78
2023-01-01T15:37:23.695Z,4.74
2023-01-01T15:39:54.418Z,4.76
2023-01-01T15:42:34.407Z,4.71
2023-01-01T15:45:24.858Z,4.70
2023-01-01T15:47:54.811Z,4.79
2023-01-01T15:50:26.141Z,4.67
2023-01-01T15:52:58.658Z,4.75
2023-01-01T15:55:29.684Z,4.88
2023-01-01T15:57:59.313Z,4.88
2023-01-01T16:00:30.003Z,4.94
2023-01-01T16:03:01.744Z,4.85
2023-01-01T16:05:33.465Z,4.91
2023-01-01T16:08:05.319Z,4.94
2023-01-01T16:10:34.386Z,4.95
2023-01-01T16:13:02.603Z,4.88
2023-01-01T16:15:31.944Z,4.86
2023-01-01T16:18:01.708Z,4.87
2023-01-01T16:20:30.308Z,4.91
2023-01-01T16:22:58.655Z,5.00
2023-01-01T16:25:28.698Z,4.97
2023-01-01T16:28:04.731Z,4.86
2023-01-01T16:30:37.481Z,4.96
2023-01-01T16:33:20.650Z,4.80
2023-01-01T16:35:55.665Z,4.86
2023-01-01T16:38:23.758Z,4.95
2023-01-01T16:40:54.603Z,5.01
2023-01-01T16:43:23.854Z,5.00
2023-01-01T16:45:52.834Z,5.09
2023-01-01T16:48:21.365Z,4.96
2023-01-01T16:50:52.423Z,4.98
2023-01-01T16:53:20.828Z,5.02
2023-01-01T16:55:53.999Z,4.91
2023-01-01T16:58:48.425Z,5.01
2023-01-01T17:01:11.028Z,4.99
2023-01-01T17:03:39.580Z,5.12
2023-01-01T17:06:09.243Z,5.15
2023-01-01T17:08:39.980Z,5.11
2023-01-01T17:11:14.013Z,5.16
2023-01-01T17:13:42.986Z,5.23
2023-01-01T17:16:14.002Z,5.24
2023-01-01T17:19:13.781Z,5.17
2023-01-01T17:21:33.855Z,5.07
2023-01-01T17:24:02.175Z,5.14
2023-01-01T17:26:32.413Z,5.08
2023-01-01T17:29:03.078Z,5.11
2023-01-01T17:31:31.715Z,5.06
2023-01-01T17:33:59.942Z,5.10
2023-01-01T17:36:28.448Z,5.22
2023-01-01T17:38:57.609Z,5.24
2023-01-01T17:41:26.590Z,5.27
2023-01-01T17:43:57.925Z,5.33
2023-01-01T17:46:28.678Z,5.36
2023-01-01T17:48:57.104Z,5.40
2023-01-01T17:51:25.496Z,5.45
2023-01-01T17:53:54.367Z,5.36
2023-01-01T17:56:23.680Z,5.30
2023-01-01T17:58:53.936Z,5.31
2023-01-01T18:01:32.125Z,5.29
2023-01-01T18:04:01.701Z,5.38
2023-01-01T18:06:31.052Z,5.16
2023-01-01T18:09:00.450Z,5.27
2023-01-01T18:11:31.333Z,5.22
2023-01-01T18:14:01.264Z,5.27
2023-01-01T18:16:32.059Z,5.26
2023-01-01T18:19:01.522Z,5.33
2023-01-01T18:21:29.766Z,5.30
2023-01-01T18:23:59.041Z,5.32
2023-01-01T18:26:29.140Z,5.37
2023-01-01T18:28:59.672Z,5.39
2023-01-01T18:31:29.778Z,5.45
2023-01-01T18:33:59.720Z,5.34
2023-01-01T18:36:29.989Z,5.27
2023-01-01T18:39:00.262Z,5.26
2023-01-01T18:42:12.496Z,5.21
2023-01-01T18:44:44.526Z,5.33
2023-01-01T18:47:25.442Z,5.34
2023-01-01T18:50:03.326Z,5.40
2023-01-01T18:52:37.023Z,5.52
2023-01-01T18:55:18.555Z,5.55
2023-01-01T18:57:51.564Z,5.63
2023-01-01T19:00:26.178Z,5.68
2023-01-01T19:03:00.613Z,5.63
2023-01-01T19:05:32.615Z,5.66
2023-01-01T19:08:16.151Z,5.73
2023-01-01T19:10:49.918Z,5.75
2023-01-01T19:13:25.260Z,5.74
2023-01-01T19:15:58.859Z,5.96
2023-01-01T19:18:31.205Z,5.97
2023-01-01T19:21:04.491Z,6.03
2023-01-01T19:23:36.729Z,6.07
2023-01-01T19:26:08.872Z,6.14
2023-01-01T19:28:47.871Z,6.25
2023-01-01T19:31:22.483Z,6.28
2023-01-01T19:33:55.810Z,6.13
2023-01-01T19:36:28.797Z,6.13
2023-01-01T19:39:00.152Z,6.52
2023-01-01T19:41:29.242Z,6.63
2023-01-01T19:43:57.453Z,6.69
2023-01-01T19:46:26.591Z,6.87
2023-01-01T19:48:55.513Z,6.95
2023-01-01T19:51:25.609Z,6.97
2023-01-01T19:53:54.985Z,7.08
2023-01-01T19:56:23.661Z,7.12
2023-01-01T19:58:54.212Z,7.22
2023-01-01T20:01:22.918Z,7.29
2023-01-01T20:03:55.457Z,7.36
2023-01-01T20:06:26.787Z,7.36
2023-01-01T20:08:55.723Z,7.40
2023-01-01T20:11:24.433Z,7.48
2023-01-01T20:13:57.863Z,7.52
2023-01-01T20:16:26.420Z,7.50
2023-01-01T20:18:54.991Z,7.63
2023-01-01T20:21:41.338Z,7.67
2023-01-01T20:24:11.629Z,7.69
2023-01-01T20:26:40.129Z,7.70
2023-01-01T20:29:23.429Z,7.77
2023-01-01T20:31:54.357Z,7.73
2023-01-01T20:34:23.566Z,7.77
2023-01-01T20:37:10.097Z,7.87
2023-01-01T20:39:40.447Z,7.87
2023-01-01T20:42:11.695Z,7.90
2023-01-01T20:44:43.317Z,7.87
2023-01-01T20:47:11.893Z,7.89
2023-01-01T20:49:40.115Z,7.94
2023-01-01T20:52:09.080Z,7.96
2023-01-01T20:54:37.445Z,8.00
2023-01-01T20:57:07.127Z,7.95
2023-01-01T20:59:37.292Z,8.01
2023-01-01T21:02:07.230Z,7.92
2023-01-01T21:04:38.910Z,8.05
2023-01-01T21:07:09.539Z,7.96
2023-01-01T21:09:37.908Z,8.10
2023-01-01T21:12:08.473Z,7.98
2023-01-01T21:14:37.197Z,8.14
2023-01-01T21:17:18.791Z,8.13
2023-01-01T21:19:47.335Z,8.16
2023-01-01T21:22:15.929Z,8.16
2023-01-01T21:24:47.317Z,8.17
2023-01-01T21:27:25.580Z,8.13
2023-01-01T21:29:57.013Z,8.12
2023-01-01T21:32:28.827Z,8.19
2023-01-01T21:34:57.767Z,8.13
2023-01-01T21:37:47.250Z,8.13
2023-01-01T21:40:40.086Z,8.13
2023-01-01T21:43:27.482Z,8.17
2023-01-01T21:46:04.804Z,7.93
2023-01-01T21:48:36.832Z,8.21
2023-01-01T21:51:17.089Z,8.12
2023-01-01T21:53:45.768Z,8.18
2023-01-01T21:56:28.548Z,8.16
2023-01-01T21:59:21.768Z,8.18
2023-01-01T22:01:51.592Z,8.21
2023-01-01T22:04:23.215Z,8.25
2023-01-01T22:06:54.858Z,8.27
2023-01-01T22:09:26.187Z,8.30
2023-01-01T22:11:58.993Z,8.30
2023-01-01T22:14:39.242Z,8.18
2023-01-01T22:17:15.664Z,8.27
2023-01-01T22:19:46.224Z,8.30
2023-01-01T22:22:16.692Z,8.30
2023-01-01T22:24:46.184Z,8.29
2023-01-01T22:27:26.743Z,8.27
2023-01-01T22:29:57.052Z,8.29
2023-01-01T22:32:28.687Z,8.33
2023-01-01T22:35:06.475Z,8.32
2023-01-01T22:37:38.836Z,8.29
2023-01-01T22:40:18.075Z,8.23
2023-01-01T22:42:46.274Z,8.24
2023-01-01T22:45:18.400Z,8.32
2023-01-01T22:47:47.056Z,8.34
2023-01-01T22:50:22.702Z,8.22
2023-01-01T22:52:51.221Z,8.33
2023-01-01T22:55:20.103Z,8.38
2023-01-01T22:57:48.403Z,8.34
2023-01-01T23:00:20.043Z,8.35
2023-01-01T23:02:48.520Z,8.39
2023-01-01T23:05:16.783Z,8.42
2023-01-01T23:07:44.974Z,8.42
2023-01-01T23:10:15.438Z,8.39
2023-01-01T23:12:43.710Z,8.42
2023-01-01T23:15:29.705Z,8.39
2023-01-01T23:17:59.527Z,8.39
2023-01-01T23:20:28.040Z,8.40
2023-01-01T23:22:57.160Z,8.39
2023-01-01T23:25:25.637Z,8.41
2023-01-01T23:27:54.753Z,8.42
2023-01-01T23:30:22.955Z,8.47
2023-01-01T23:32:51.347Z,8.52
2023-01-01T23:35:21.422Z,8.52
2023-01-01T23:37:49.784Z,8.56
2023-01-01T23:40:18.075Z,8.57
2023-01-01T23:42:46.308Z,8.58
2023-01-01T23:45:14.724Z,8.54
2023-01-01T23:47:43.249Z,8.51
2023-01-01T23:50:11.899Z,8.53
2023-01-01T23:52:42.115Z,8.54
2023-01-01T23:55:10.881Z,8.52
2023-01-01T23:57:39.289Z,8.51
